Montrose, Mississippi
Current Conditions -  °F | °C
As of 6:58 PM on Tuesday 27 Jan 2015 (Local Time) from KMEI Reporting Station
Clear Clear  
Wind Chill: 47°   Ceiling: Unl
Heat Index: 47°   Visibility: 10mi
Dew Point: 35°   Wind: 3mph
Humidity: 63%   Direction: 320°NW
Pressure: 30.12"   Gusts: NA
Location:  32.135°N, 89.2194°W
Report Text: KMEI 280058Z 32003KT 10SM CLR 08/02 A3012 RMK AO2 SLP200 T00830017
Loading
Personal Weather Stations






























Interactive Weather Map New forecast layout! Learn more

10-Day Weather Forecast

Advertisements
Track Severe Weather on mobile